createdAt,value
2024-04-18T08:20:24.081Z,94913.66
2024-04-18T08:22:52.170Z,94915.38
2024-04-18T08:25:20.202Z,94917.38
2024-04-18T08:27:48.167Z,94916.33
2024-04-18T08:30:16.360Z,94917.19
2024-04-18T08:32:44.514Z,94921.49
2024-04-18T08:35:13.047Z,94919.98
2024-04-18T08:37:41.131Z,94922.02
2024-04-18T08:40:09.578Z,94929.09
2024-04-18T08:42:37.838Z,94926.30
2024-04-18T08:45:09.574Z,94928.34
2024-04-18T08:47:39.601Z,94934.17
2024-04-18T08:50:10.046Z,94933.90
2024-04-18T08:52:39.971Z,94939.05
2024-04-18T08:55:08.098Z,94935.41
2024-04-18T08:57:49.229Z,94941.63
2024-04-18T09:00:17.411Z,94941.29
2024-04-18T09:02:46.162Z,94939.89
2024-04-18T09:05:14.280Z,94941.58
2024-04-18T09:07:42.367Z,94945.45
2024-04-18T09:10:10.607Z,94948.61
2024-04-18T09:12:38.733Z,94949.07
2024-04-18T09:15:07.323Z,94940.77
2024-04-18T09:17:35.696Z,94949.52
2024-04-18T09:20:04.854Z,94950.72
2024-04-18T09:22:33.898Z,94951.32
2024-04-18T09:25:02.059Z,94952.94
2024-04-18T09:27:30.133Z,94955.95
2024-04-18T09:29:58.216Z,94959.02
2024-04-18T09:32:27.283Z,94959.50
2024-04-18T09:34:57.321Z,94956.15
2024-04-18T09:37:29.531Z,94959.43
2024-04-18T09:39:58.673Z,94959.91
2024-04-18T09:42:41.797Z,94955.75
2024-04-18T09:45:15.818Z,94960.34
2024-04-18T09:47:45.350Z,94958.20
2024-04-18T09:50:14.565Z,94962.91
2024-04-18T09:52:46.284Z,94961.89
2024-04-18T09:55:14.871Z,94960.14
2024-04-18T09:57:45.049Z,94960.85
2024-04-18T10:00:14.506Z,94965.45
2024-04-18T10:02:43.433Z,94966.48
2024-04-18T10:05:11.624Z,94967.59
2024-04-18T10:07:40.931Z,94977.27
2024-04-18T10:10:11.303Z,94978.27
2024-04-18T10:12:42.096Z,94975.95
2024-04-18T10:15:10.085Z,94976.31
2024-04-18T10:17:38.397Z,94979.55
2024-04-18T10:20:07.167Z,94982.29
2024-04-18T10:22:46.732Z,94986.84
2024-04-18T10:25:21.223Z,94987.99
2024-04-18T10:27:49.558Z,94987.77
2024-04-18T10:30:17.760Z,94991.54
2024-04-18T10:32:46.771Z,94993.85
2024-04-18T10:35:16.065Z,94994.90
2024-04-18T10:37:55.966Z,94999.30
2024-04-18T10:40:24.161Z,95006.85
2024-04-18T10:42:52.184Z,94999.06
2024-04-18T10:45:20.801Z,95005.23
2024-04-18T10:47:53.779Z,95011.23
2024-04-18T10:50:21.966Z,95015.23
2024-04-18T10:52:50.317Z,95018.00
2024-04-18T10:55:18.350Z,95020.75
2024-04-18T10:57:46.524Z,95022.33
2024-04-18T11:00:18.022Z,95023.33
2024-04-18T11:02:46.118Z,95025.92
2024-04-18T11:05:14.315Z,95026.16
2024-04-18T11:07:51.352Z,95038.36
2024-04-18T11:10:19.696Z,95039.83
2024-04-18T11:12:47.808Z,95042.21
2024-04-18T11:15:18.896Z,95044.15
2024-04-18T11:17:47.165Z,95047.64
2024-04-18T11:20:15.463Z,95047.84
2024-04-18T11:22:47.975Z,95047.08
2024-04-18T11:25:18.591Z,95052.76
2024-04-18T11:28:10.018Z,95053.58
2024-04-18T11:30:41.669Z,95060.41
2024-04-18T11:33:13.809Z,95055.70
2024-04-18T11:35:42.078Z,95060.48
2024-04-18T11:38:18.126Z,95065.21
2024-04-18T11:40:46.310Z,95070.70
